sensor_id;sensor_type;location;lat;lon;timestamp;P1;durP1;ratioP1;P2;durP2;ratioP2
38581;SDS011;24349;53.720;10.014;2023-02-04T00:01:20;3.85;;;1.50;;
38581;SDS011;24349;53.720;10.014;2023-02-04T00:03:47;4.07;;;1.40;;
38581;SDS011;24349;53.720;10.014;2023-02-04T00:06:13;7.07;;;1.98;;
38581;SDS011;24349;53.720;10.014;2023-02-04T00:08:38;3.50;;;1.70;;
38581;SDS011;24349;53.720;10.014;2023-02-04T00:11:04;3.03;;;1.40;;
38581;SDS011;24349;53.720;10.014;2023-02-04T00:13:29;5.47;;;1.60;;
38581;SDS011;24349;53.720;10.014;2023-02-04T00:15:55;3.55;;;1.35;;
38581;SDS011;24349;53.720;10.014;2023-02-04T00:18:21;3.53;;;1.45;;
38581;SDS011;24349;53.720;10.014;2023-02-04T00:20:46;4.57;;;1.50;;
38581;SDS011;24349;53.720;10.014;2023-02-04T00:23:12;4.13;;;1.70;;
38581;SDS011;24349;53.720;10.014;2023-02-04T00:25:38;5.97;;;1.83;;
38581;SDS011;24349;53.720;10.014;2023-02-04T00:28:03;3.83;;;1.63;;
38581;SDS011;24349;53.720;10.014;2023-02-04T00:30:30;3.75;;;1.73;;
38581;SDS011;24349;53.720;10.014;2023-02-04T00:32:56;4.03;;;1.70;;
38581;SDS011;24349;53.720;10.014;2023-02-04T00:35:22;4.72;;;1.90;;
38581;SDS011;24349;53.720;10.014;2023-02-04T00:37:47;4.65;;;1.92;;
38581;SDS011;24349;53.720;10.014;2023-02-04T00:40:14;4.75;;;1.60;;
38581;SDS011;24349;53.720;10.014;2023-02-04T00:42:39;5.25;;;1.88;;
38581;SDS011;24349;53.720;10.014;2023-02-04T00:45:05;4.35;;;1.85;;
38581;SDS011;24349;53.720;10.014;2023-02-04T00:47:31;4.30;;;1.50;;
38581;SDS011;24349;53.720;10.014;2023-02-04T00:49:56;4.53;;;1.95;;
38581;SDS011;24349;53.720;10.014;2023-02-04T00:52:22;4.43;;;1.85;;
38581;SDS011;24349;53.720;10.014;2023-02-04T00:54:48;4.50;;;1.90;;
38581;SDS011;24349;53.720;10.014;2023-02-04T00:57:13;6.05;;;1.92;;
38581;SDS011;24349;53.720;10.014;2023-02-04T00:59:39;4.55;;;1.77;;
38581;SDS011;24349;53.720;10.014;2023-02-04T01:02:05;4.55;;;1.90;;
38581;SDS011;24349;53.720;10.014;2023-02-04T01:04:30;4.50;;;1.70;;
38581;SDS011;24349;53.720;10.014;2023-02-04T01:06:56;4.95;;;2.03;;
38581;SDS011;24349;53.720;10.014;2023-02-04T01:09:22;5.13;;;1.77;;
38581;SDS011;24349;53.720;10.014;2023-02-04T01:11:48;5.43;;;1.73;;
38581;SDS011;24349;53.720;10.014;2023-02-04T01:14:14;5.97;;;1.90;;
38581;SDS011;24349;53.720;10.014;2023-02-04T01:16:40;5.10;;;2.05;;
38581;SDS011;24349;53.720;10.014;2023-02-04T01:19:05;6.43;;;2.33;;
38581;SDS011;24349;53.720;10.014;2023-02-04T01:21:31;4.78;;;1.63;;
38581;SDS011;24349;53.720;10.014;2023-02-04T01:23:57;5.88;;;2.13;;
38581;SDS011;24349;53.720;10.014;2023-02-04T01:26:22;4.22;;;2.10;;
38581;SDS011;24349;53.720;10.014;2023-02-04T01:28:49;5.88;;;1.83;;
38581;SDS011;24349;53.720;10.014;2023-02-04T01:31:15;6.28;;;2.10;;
38581;SDS011;24349;53.720;10.014;2023-02-04T01:33:40;5.50;;;2.22;;
38581;SDS011;24349;53.720;10.014;2023-02-04T01:36:06;5.15;;;2.22;;
38581;SDS011;24349;53.720;10.014;2023-02-04T01:38:33;3.92;;;1.73;;
38581;SDS011;24349;53.720;10.014;2023-02-04T01:40:58;5.40;;;2.20;;
38581;SDS011;24349;53.720;10.014;2023-02-04T01:43:25;5.22;;;2.20;;
38581;SDS011;24349;53.720;10.014;2023-02-04T01:45:51;6.82;;;2.65;;
38581;SDS011;24349;53.720;10.014;2023-02-04T01:48:20;5.10;;;2.47;;
38581;SDS011;24349;53.720;10.014;2023-02-04T01:50:47;5.75;;;2.40;;
38581;SDS011;24349;53.720;10.014;2023-02-04T01:53:19;5.88;;;2.60;;
38581;SDS011;24349;53.720;10.014;2023-02-04T01:55:46;4.35;;;2.03;;
38581;SDS011;24349;53.720;10.014;2023-02-04T01:58:13;6.38;;;2.78;;
38581;SDS011;24349;53.720;10.014;2023-02-04T02:00:40;5.97;;;2.75;;
38581;SDS011;24349;53.720;10.014;2023-02-04T02:03:06;4.43;;;2.20;;
38581;SDS011;24349;53.720;10.014;2023-02-04T02:05:39;5.10;;;2.25;;
38581;SDS011;24349;53.720;10.014;2023-02-04T02:08:10;3.63;;;1.90;;
38581;SDS011;24349;53.720;10.014;2023-02-04T02:10:37;6.60;;;2.40;;
38581;SDS011;24349;53.720;10.014;2023-02-04T02:13:07;5.35;;;2.40;;
38581;SDS011;24349;53.720;10.014;2023-02-04T02:15:35;5.30;;;1.90;;
38581;SDS011;24349;53.720;10.014;2023-02-04T02:18:01;3.47;;;1.77;;
38581;SDS011;24349;53.720;10.014;2023-02-04T02:20:27;4.80;;;2.47;;
38581;SDS011;24349;53.720;10.014;2023-02-04T02:25:38;5.82;;;2.33;;
38581;SDS011;24349;53.720;10.014;2023-02-04T02:28:08;5.47;;;2.50;;
38581;SDS011;24349;53.720;10.014;2023-02-04T02:30:36;4.70;;;2.60;;
38581;SDS011;24349;53.720;10.014;2023-02-04T02:33:02;5.25;;;2.28;;
38581;SDS011;24349;53.720;10.014;2023-02-04T02:35:28;5.63;;;2.42;;
38581;SDS011;24349;53.720;10.014;2023-02-04T02:37:54;4.65;;;2.17;;
38581;SDS011;24349;53.720;10.014;2023-02-04T02:40:20;4.82;;;2.50;;
38581;SDS011;24349;53.720;10.014;2023-02-04T02:42:47;5.95;;;2.40;;
38581;SDS011;24349;53.720;10.014;2023-02-04T02:45:20;5.00;;;2.28;;
38581;SDS011;24349;53.720;10.014;2023-02-04T02:47:48;7.28;;;2.90;;
38581;SDS011;24349;53.720;10.014;2023-02-04T02:50:15;5.70;;;2.20;;
38581;SDS011;24349;53.720;10.014;2023-02-04T02:52:44;5.05;;;2.00;;
38581;SDS011;24349;53.720;10.014;2023-02-04T02:55:17;6.72;;;2.45;;
38581;SDS011;24349;53.720;10.014;2023-02-04T02:57:45;5.40;;;2.78;;
38581;SDS011;24349;53.720;10.014;2023-02-04T03:00:18;4.95;;;2.50;;
38581;SDS011;24349;53.720;10.014;2023-02-04T03:03:15;6.18;;;2.55;;
38581;SDS011;24349;53.720;10.014;2023-02-04T03:05:46;6.35;;;2.55;;
38581;SDS011;24349;53.720;10.014;2023-02-04T03:08:15;4.80;;;2.38;;
38581;SDS011;24349;53.720;10.014;2023-02-04T03:10:42;5.32;;;2.20;;
38581;SDS011;24349;53.720;10.014;2023-02-04T03:13:09;5.05;;;1.88;;
38581;SDS011;24349;53.720;10.014;2023-02-04T03:15:36;5.13;;;2.25;;
38581;SDS011;24349;53.720;10.014;2023-02-04T03:18:02;8.10;;;3.33;;
38581;SDS011;24349;53.720;10.014;2023-02-04T03:20:29;5.45;;;2.83;;
38581;SDS011;24349;53.720;10.014;2023-02-04T03:22:55;7.55;;;3.15;;
38581;SDS011;24349;53.720;10.014;2023-02-04T03:25:23;6.90;;;3.00;;
38581;SDS011;24349;53.720;10.014;2023-02-04T03:27:51;5.18;;;3.15;;
38581;SDS011;24349;53.720;10.014;2023-02-04T03:30:18;4.65;;;2.30;;
38581;SDS011;24349;53.720;10.014;2023-02-04T03:32:44;5.80;;;2.80;;
38581;SDS011;24349;53.720;10.014;2023-02-04T03:35:10;6.32;;;2.40;;
38581;SDS011;24349;53.720;10.014;2023-02-04T03:37:36;7.50;;;3.53;;
38581;SDS011;24349;53.720;10.014;2023-02-04T03:40:01;6.90;;;2.63;;
38581;SDS011;24349;53.720;10.014;2023-02-04T03:42:28;6.57;;;3.42;;
38581;SDS011;24349;53.720;10.014;2023-02-04T03:44:54;5.93;;;3.33;;
38581;SDS011;24349;53.720;10.014;2023-02-04T03:47:19;7.35;;;4.00;;
38581;SDS011;24349;53.720;10.014;2023-02-04T03:49:45;8.52;;;3.78;;
38581;SDS011;24349;53.720;10.014;2023-02-04T03:52:10;6.03;;;3.30;;
38581;SDS011;24349;53.720;10.014;2023-02-04T03:54:36;6.72;;;3.75;;
38581;SDS011;24349;53.720;10.014;2023-02-04T03:57:01;7.25;;;3.67;;
38581;SDS011;24349;53.720;10.014;2023-02-04T03:59:27;6.32;;;2.90;;
38581;SDS011;24349;53.720;10.014;2023-02-04T04:01:53;6.90;;;3.20;;
38581;SDS011;24349;53.720;10.014;2023-02-04T04:04:18;5.50;;;2.60;;
38581;SDS011;24349;53.720;10.014;2023-02-04T04:06:44;7.28;;;3.28;;
38581;SDS011;24349;53.720;10.014;2023-02-04T04:09:09;4.28;;;2.42;;
38581;SDS011;24349;53.720;10.014;2023-02-04T04:11:35;6.75;;;3.65;;
38581;SDS011;24349;53.720;10.014;2023-02-04T04:14:01;6.25;;;2.83;;
38581;SDS011;24349;53.720;10.014;2023-02-04T04:16:26;5.47;;;2.55;;
38581;SDS011;24349;53.720;10.014;2023-02-04T04:18:53;5.75;;;3.17;;
38581;SDS011;24349;53.720;10.014;2023-02-04T04:21:18;6.20;;;2.70;;
38581;SDS011;24349;53.720;10.014;2023-02-04T04:23:44;5.00;;;2.75;;
38581;SDS011;24349;53.720;10.014;2023-02-04T04:26:09;6.70;;;3.38;;
38581;SDS011;24349;53.720;10.014;2023-02-04T04:28:35;5.68;;;2.20;;
38581;SDS011;24349;53.720;10.014;2023-02-04T04:31:01;5.50;;;2.53;;
38581;SDS011;24349;53.720;10.014;2023-02-04T04:33:26;5.57;;;2.65;;
38581;SDS011;24349;53.720;10.014;2023-02-04T04:35:52;6.35;;;3.20;;
38581;SDS011;24349;53.720;10.014;2023-02-04T04:38:17;5.80;;;3.30;;
38581;SDS011;24349;53.720;10.014;2023-02-04T04:40:43;6.55;;;3.42;;
38581;SDS011;24349;53.720;10.014;2023-02-04T04:43:08;6.88;;;3.80;;
38581;SDS011;24349;53.720;10.014;2023-02-04T04:45:34;7.13;;;3.00;;
38581;SDS011;24349;53.720;10.014;2023-02-04T04:48:00;6.20;;;3.22;;
38581;SDS011;24349;53.720;10.014;2023-02-04T04:50:25;6.60;;;2.88;;
38581;SDS011;24349;53.720;10.014;2023-02-04T04:52:51;6.57;;;3.00;;
38581;SDS011;24349;53.720;10.014;2023-02-04T04:55:16;5.15;;;2.60;;
38581;SDS011;24349;53.720;10.014;2023-02-04T04:57:42;7.40;;;3.60;;
38581;SDS011;24349;53.720;10.014;2023-02-04T05:00:09;7.75;;;3.35;;
38581;SDS011;24349;53.720;10.014;2023-02-04T05:02:39;6.35;;;3.50;;
38581;SDS011;24349;53.720;10.014;2023-02-04T05:05:05;6.15;;;2.95;;
38581;SDS011;24349;53.720;10.014;2023-02-04T05:07:30;5.43;;;2.55;;
38581;SDS011;24349;53.720;10.014;2023-02-04T05:09:56;7.60;;;3.42;;
38581;SDS011;24349;53.720;10.014;2023-02-04T05:12:21;7.15;;;2.88;;
38581;SDS011;24349;53.720;10.014;2023-02-04T05:14:47;6.68;;;3.08;;
38581;SDS011;24349;53.720;10.014;2023-02-04T05:17:12;6.75;;;3.50;;
38581;SDS011;24349;53.720;10.014;2023-02-04T05:19:38;7.15;;;3.50;;
38581;SDS011;24349;53.720;10.014;2023-02-04T05:22:04;6.45;;;3.30;;
38581;SDS011;24349;53.720;10.014;2023-02-04T05:24:29;6.38;;;3.85;;
38581;SDS011;24349;53.720;10.014;2023-02-04T05:26:55;7.75;;;3.90;;
38581;SDS011;24349;53.720;10.014;2023-02-04T05:29:20;6.90;;;3.53;;
38581;SDS011;24349;53.720;10.014;2023-02-04T05:31:46;5.30;;;2.78;;
38581;SDS011;24349;53.720;10.014;2023-02-04T05:34:11;5.63;;;2.83;;
38581;SDS011;24349;53.720;10.014;2023-02-04T05:36:37;6.10;;;2.60;;
38581;SDS011;24349;53.720;10.014;2023-02-04T05:39:03;5.30;;;2.58;;
38581;SDS011;24349;53.720;10.014;2023-02-04T05:41:28;6.95;;;3.65;;
38581;SDS011;24349;53.720;10.014;2023-02-04T05:43:54;5.78;;;3.55;;
38581;SDS011;24349;53.720;10.014;2023-02-04T05:46:19;6.38;;;3.20;;
38581;SDS011;24349;53.720;10.014;2023-02-04T05:48:45;5.43;;;2.80;;
38581;SDS011;24349;53.720;10.014;2023-02-04T05:51:10;5.30;;;3.25;;
38581;SDS011;24349;53.720;10.014;2023-02-04T05:53:36;6.93;;;3.47;;
38581;SDS011;24349;53.720;10.014;2023-02-04T05:56:02;7.45;;;3.75;;
38581;SDS011;24349;53.720;10.014;2023-02-04T05:58:27;5.00;;;2.67;;
38581;SDS011;24349;53.720;10.014;2023-02-04T06:00:57;6.30;;;3.58;;
38581;SDS011;24349;53.720;10.014;2023-02-04T06:03:24;8.40;;;4.30;;
38581;SDS011;24349;53.720;10.014;2023-02-04T06:05:50;7.63;;;4.20;;
38581;SDS011;24349;53.720;10.014;2023-02-04T06:08:15;6.22;;;2.67;;
38581;SDS011;24349;53.720;10.014;2023-02-04T06:10:41;7.22;;;3.65;;
38581;SDS011;24349;53.720;10.014;2023-02-04T06:13:06;6.45;;;3.60;;
38581;SDS011;24349;53.720;10.014;2023-02-04T06:15:32;5.90;;;3.10;;
38581;SDS011;24349;53.720;10.014;2023-02-04T06:17:57;9.15;;;4.63;;
38581;SDS011;24349;53.720;10.014;2023-02-04T06:20:23;7.60;;;4.20;;
38581;SDS011;24349;53.720;10.014;2023-02-04T06:22:49;12.13;;;7.00;;
38581;SDS011;24349;53.720;10.014;2023-02-04T06:25:16;10.00;;;6.20;;
38581;SDS011;24349;53.720;10.014;2023-02-04T06:27:41;9.48;;;5.50;;
38581;SDS011;24349;53.720;10.014;2023-02-04T06:30:08;9.68;;;5.70;;
38581;SDS011;24349;53.720;10.014;2023-02-04T06:32:34;7.07;;;4.55;;
38581;SDS011;24349;53.720;10.014;2023-02-04T06:35:00;9.73;;;6.55;;
38581;SDS011;24349;53.720;10.014;2023-02-04T06:37:26;8.93;;;6.50;;
38581;SDS011;24349;53.720;10.014;2023-02-04T06:39:51;9.65;;;4.53;;
38581;SDS011;24349;53.720;10.014;2023-02-04T06:42:18;7.78;;;4.13;;
38581;SDS011;24349;53.720;10.014;2023-02-04T06:44:44;10.93;;;6.22;;
38581;SDS011;24349;53.720;10.014;2023-02-04T06:47:10;6.78;;;4.30;;
38581;SDS011;24349;53.720;10.014;2023-02-04T06:49:37;6.50;;;3.90;;
38581;SDS011;24349;53.720;10.014;2023-02-04T06:52:02;9.65;;;4.20;;
38581;SDS011;24349;53.720;10.014;2023-02-04T06:54:29;8.38;;;4.50;;
38581;SDS011;24349;53.720;10.014;2023-02-04T06:56:55;8.48;;;4.95;;
38581;SDS011;24349;53.720;10.014;2023-02-04T06:59:21;8.05;;;3.97;;
38581;SDS011;24349;53.720;10.014;2023-02-04T07:01:49;8.95;;;4.80;;
38581;SDS011;24349;53.720;10.014;2023-02-04T07:04:14;9.45;;;5.10;;
38581;SDS011;24349;53.720;10.014;2023-02-04T07:06:40;7.65;;;4.93;;
38581;SDS011;24349;53.720;10.014;2023-02-04T07:09:06;7.35;;;3.97;;
38581;SDS011;24349;53.720;10.014;2023-02-04T07:11:31;7.90;;;3.75;;
38581;SDS011;24349;53.720;10.014;2023-02-04T07:13:57;6.85;;;3.33;;
38581;SDS011;24349;53.720;10.014;2023-02-04T07:16:22;7.97;;;4.53;;
38581;SDS011;24349;53.720;10.014;2023-02-04T07:18:48;8.65;;;5.10;;
38581;SDS011;24349;53.720;10.014;2023-02-04T07:21:17;7.45;;;4.20;;
38581;SDS011;24349;53.720;10.014;2023-02-04T07:23:42;6.55;;;3.58;;
38581;SDS011;24349;53.720;10.014;2023-02-04T07:26:08;6.22;;;3.25;;
38581;SDS011;24349;53.720;10.014;2023-02-04T07:28:34;8.95;;;5.45;;
38581;SDS011;24349;53.720;10.014;2023-02-04T07:31:00;10.25;;;5.70;;
38581;SDS011;24349;53.720;10.014;2023-02-04T07:33:26;8.32;;;5.63;;
38581;SDS011;24349;53.720;10.014;2023-02-04T07:35:52;10.60;;;6.13;;
38581;SDS011;24349;53.720;10.014;2023-02-04T07:38:17;11.50;;;6.03;;
38581;SDS011;24349;53.720;10.014;2023-02-04T07:40:43;8.13;;;4.95;;
38581;SDS011;24349;53.720;10.014;2023-02-04T07:43:08;8.30;;;5.13;;
38581;SDS011;24349;53.720;10.014;2023-02-04T07:45:34;7.28;;;4.50;;
38581;SDS011;24349;53.720;10.014;2023-02-04T07:47:59;7.65;;;4.75;;
38581;SDS011;24349;53.720;10.014;2023-02-04T07:50:25;8.88;;;5.50;;
38581;SDS011;24349;53.720;10.014;2023-02-04T07:52:51;9.07;;;6.47;;
38581;SDS011;24349;53.720;10.014;2023-02-04T07:55:16;8.43;;;5.25;;
38581;SDS011;24349;53.720;10.014;2023-02-04T07:57:42;8.63;;;5.22;;
38581;SDS011;24349;53.720;10.014;2023-02-04T08:00:08;7.18;;;4.32;;
38581;SDS011;24349;53.720;10.014;2023-02-04T08:02:34;9.23;;;5.75;;
38581;SDS011;24349;53.720;10.014;2023-02-04T08:05:00;10.60;;;6.70;;
38581;SDS011;24349;53.720;10.014;2023-02-04T08:07:27;9.95;;;6.40;;
38581;SDS011;24349;53.720;10.014;2023-02-04T08:09:52;10.13;;;5.55;;
38581;SDS011;24349;53.720;10.014;2023-02-04T08:12:18;8.73;;;4.43;;
38581;SDS011;24349;53.720;10.014;2023-02-04T08:14:43;9.70;;;5.40;;
38581;SDS011;24349;53.720;10.014;2023-02-04T08:17:09;9.05;;;6.22;;
38581;SDS011;24349;53.720;10.014;2023-02-04T08:19:34;8.25;;;6.32;;
38581;SDS011;24349;53.720;10.014;2023-02-04T08:22:00;9.38;;;5.40;;
38581;SDS011;24349;53.720;10.014;2023-02-04T08:24:26;6.10;;;4.00;;
38581;SDS011;24349;53.720;10.014;2023-02-04T08:26:51;5.88;;;2.83;;
38581;SDS011;24349;53.720;10.014;2023-02-04T08:29:17;8.05;;;3.75;;
38581;SDS011;24349;53.720;10.014;2023-02-04T08:31:42;6.88;;;3.90;;
38581;SDS011;24349;53.720;10.014;2023-02-04T08:34:09;8.40;;;5.10;;
38581;SDS011;24349;53.720;10.014;2023-02-04T08:36:34;7.82;;;4.45;;
38581;SDS011;24349;53.720;10.014;2023-02-04T08:39:00;16.27;;;10.65;;
38581;SDS011;24349;53.720;10.014;2023-02-04T08:41:25;20.58;;;13.30;;
38581;SDS011;24349;53.720;10.014;2023-02-04T08:43:51;8.00;;;5.38;;
38581;SDS011;24349;53.720;10.014;2023-02-04T08:46:17;8.13;;;4.25;;
38581;SDS011;24349;53.720;10.014;2023-02-04T08:48:42;4.95;;;2.60;;
38581;SDS011;24349;53.720;10.014;2023-02-04T08:51:08;8.02;;;3.22;;
38581;SDS011;24349;53.720;10.014;2023-02-04T08:53:34;7.25;;;2.85;;
38581;SDS011;24349;53.720;10.014;2023-02-04T08:55:59;5.55;;;2.45;;
38581;SDS011;24349;53.720;10.014;2023-02-04T08:58:25;5.85;;;2.40;;
38581;SDS011;24349;53.720;10.014;2023-02-04T09:00:51;4.90;;;2.33;;
38581;SDS011;24349;53.720;10.014;2023-02-04T09:03:16;5.18;;;2.08;;
38581;SDS011;24349;53.720;10.014;2023-02-04T09:05:42;4.63;;;2.30;;
38581;SDS011;24349;53.720;10.014;2023-02-04T09:08:08;3.83;;;1.88;;
38581;SDS011;24349;53.720;10.014;2023-02-04T09:10:34;4.75;;;2.35;;
38581;SDS011;24349;53.720;10.014;2023-02-04T09:12:59;4.15;;;1.90;;
38581;SDS011;24349;53.720;10.014;2023-02-04T09:15:25;7.05;;;2.00;;
38581;SDS011;24349;53.720;10.014;2023-02-04T09:17:50;5.40;;;1.90;;
38581;SDS011;24349;53.720;10.014;2023-02-04T09:20:28;5.00;;;2.00;;
38581;SDS011;24349;53.720;10.014;2023-02-04T09:22:54;4.50;;;2.10;;
38581;SDS011;24349;53.720;10.014;2023-02-04T09:25:19;5.45;;;2.33;;
38581;SDS011;24349;53.720;10.014;2023-02-04T09:27:45;5.72;;;2.25;;
38581;SDS011;24349;53.720;10.014;2023-02-04T09:30:11;5.75;;;2.20;;
38581;SDS011;24349;53.720;10.014;2023-02-04T09:32:37;5.15;;;2.30;;
38581;SDS011;24349;53.720;10.014;2023-02-04T09:35:02;3.95;;;2.00;;
38581;SDS011;24349;53.720;10.014;2023-02-04T09:37:28;4.13;;;1.85;;
38581;SDS011;24349;53.720;10.014;2023-02-04T09:39:56;7.03;;;3.28;;
38581;SDS011;24349;53.720;10.014;2023-02-04T09:42:22;13.27;;;7.78;;
38581;SDS011;24349;53.720;10.014;2023-02-04T09:44:50;5.43;;;2.90;;
38581;SDS011;24349;53.720;10.014;2023-02-04T09:47:15;5.53;;;2.15;;
38581;SDS011;24349;53.720;10.014;2023-02-04T09:49:46;5.05;;;1.75;;
38581;SDS011;24349;53.720;10.014;2023-02-04T09:52:12;4.05;;;1.73;;
38581;SDS011;24349;53.720;10.014;2023-02-04T09:54:39;4.43;;;1.65;;
38581;SDS011;24349;53.720;10.014;2023-02-04T09:57:18;4.28;;;1.60;;
38581;SDS011;24349;53.720;10.014;2023-02-04T09:59:44;4.93;;;1.90;;
38581;SDS011;24349;53.720;10.014;2023-02-04T10:02:15;3.35;;;1.30;;
38581;SDS011;24349;53.720;10.014;2023-02-04T10:04:46;4.13;;;1.50;;
38581;SDS011;24349;53.720;10.014;2023-02-04T10:07:11;3.67;;;1.83;;
38581;SDS011;24349;53.720;10.014;2023-02-04T10:09:38;4.43;;;1.63;;
38581;SDS011;24349;53.720;10.014;2023-02-04T10:12:05;4.20;;;1.50;;
38581;SDS011;24349;53.720;10.014;2023-02-04T10:14:31;3.85;;;1.63;;
38581;SDS011;24349;53.720;10.014;2023-02-04T10:16:57;4.68;;;1.70;;
38581;SDS011;24349;53.720;10.014;2023-02-04T10:19:25;4.78;;;1.60;;
38581;SDS011;24349;53.720;10.014;2023-02-04T10:21:53;4.20;;;1.55;;
38581;SDS011;24349;53.720;10.014;2023-02-04T10:24:20;4.47;;;1.77;;
38581;SDS011;24349;53.720;10.014;2023-02-04T10:26:52;3.03;;;1.30;;
38581;SDS011;24349;53.720;10.014;2023-02-04T10:29:19;2.53;;;1.15;;
38581;SDS011;24349;53.720;10.014;2023-02-04T10:31:48;3.05;;;1.50;;
38581;SDS011;24349;53.720;10.014;2023-02-04T10:36:45;3.60;;;1.40;;
38581;SDS011;24349;53.720;10.014;2023-02-04T10:39:25;4.47;;;1.60;;
38581;SDS011;24349;53.720;10.014;2023-02-04T10:41:53;4.15;;;1.80;;
38581;SDS011;24349;53.720;10.014;2023-02-04T10:44:29;3.97;;;1.67;;
38581;SDS011;24349;53.720;10.014;2023-02-04T10:47:00;4.03;;;1.60;;
38581;SDS011;24349;53.720;10.014;2023-02-04T10:49:27;4.85;;;1.60;;
38581;SDS011;24349;53.720;10.014;2023-02-04T10:51:53;3.80;;;1.60;;
38581;SDS011;24349;53.720;10.014;2023-02-04T10:54:19;5.72;;;1.90;;
38581;SDS011;24349;53.720;10.014;2023-02-04T10:59:43;3.10;;;1.45;;
38581;SDS011;24349;53.720;10.014;2023-02-04T11:05:19;5.30;;;2.30;;
38581;SDS011;24349;53.720;10.014;2023-02-04T11:07:49;4.68;;;1.90;;
38581;SDS011;24349;53.720;10.014;2023-02-04T11:10:36;4.68;;;1.80;;
38581;SDS011;24349;53.720;10.014;2023-02-04T11:13:42;4.53;;;2.00;;
38581;SDS011;24349;53.720;10.014;2023-02-04T11:18:53;4.20;;;1.90;;
38581;SDS011;24349;53.720;10.014;2023-02-04T11:33:03;6.07;;;2.05;;
38581;SDS011;24349;53.720;10.014;2023-02-04T11:35:30;3.92;;;1.85;;
38581;SDS011;24349;53.720;10.014;2023-02-04T11:38:02;3.85;;;1.48;;
38581;SDS011;24349;53.720;10.014;2023-02-04T11:40:54;4.60;;;1.65;;
38581;SDS011;24349;53.720;10.014;2023-02-04T11:43:24;3.60;;;1.48;;
38581;SDS011;24349;53.720;10.014;2023-02-04T11:46:01;4.20;;;1.73;;
38581;SDS011;24349;53.720;10.014;2023-02-04T11:48:38;4.63;;;1.48;;
38581;SDS011;24349;53.720;10.014;2023-02-04T11:51:12;5.15;;;1.42;;
38581;SDS011;24349;53.720;10.014;2023-02-04T11:53:40;4.20;;;1.50;;
38581;SDS011;24349;53.720;10.014;2023-02-04T11:56:06;4.10;;;1.52;;
38581;SDS011;24349;53.720;10.014;2023-02-04T11:58:39;3.97;;;1.60;;
38581;SDS011;24349;53.720;10.014;2023-02-04T12:01:15;3.38;;;1.30;;
38581;SDS011;24349;53.720;10.014;2023-02-04T12:03:46;2.95;;;1.10;;
38581;SDS011;24349;53.720;10.014;2023-02-04T12:06:20;2.05;;;0.80;;
38581;SDS011;24349;53.720;10.014;2023-02-04T12:09:06;2.40;;;1.10;;
38581;SDS011;24349;53.720;10.014;2023-02-04T12:11:32;2.40;;;1.10;;
38581;SDS011;24349;53.720;10.014;2023-02-04T12:14:06;3.58;;;1.25;;
38581;SDS011;24349;53.720;10.014;2023-02-04T12:16:40;5.18;;;1.58;;
38581;SDS011;24349;53.720;10.014;2023-02-04T12:19:15;5.28;;;2.25;;
38581;SDS011;24349;53.720;10.014;2023-02-04T12:21:41;2.92;;;1.27;;
38581;SDS011;24349;53.720;10.014;2023-02-04T12:24:07;4.20;;;1.52;;
38581;SDS011;24349;53.720;10.014;2023-02-04T12:26:33;3.67;;;1.33;;
38581;SDS011;24349;53.720;10.014;2023-02-04T12:28:58;4.47;;;1.50;;
38581;SDS011;24349;53.720;10.014;2023-02-04T12:31:27;3.50;;;1.35;;
38581;SDS011;24349;53.720;10.014;2023-02-04T12:33:56;3.53;;;1.60;;
38581;SDS011;24349;53.720;10.014;2023-02-04T12:36:22;4.60;;;1.40;;
38581;SDS011;24349;53.720;10.014;2023-02-04T12:38:48;3.45;;;1.60;;
38581;SDS011;24349;53.720;10.014;2023-02-04T12:41:14;3.45;;;1.40;;
38581;SDS011;24349;53.720;10.014;2023-02-04T12:43:40;4.95;;;1.90;;
38581;SDS011;24349;53.720;10.014;2023-02-04T12:46:05;4.43;;;1.60;;
38581;SDS011;24349;53.720;10.014;2023-02-04T12:48:31;4.72;;;1.60;;
38581;SDS011;24349;53.720;10.014;2023-02-04T12:50:56;4.13;;;1.55;;
38581;SDS011;24349;53.720;10.014;2023-02-04T12:53:22;4.18;;;1.70;;
38581;SDS011;24349;53.720;10.014;2023-02-04T12:55:47;4.00;;;1.67;;
38581;SDS011;24349;53.720;10.014;2023-02-04T12:58:13;4.03;;;1.55;;
38581;SDS011;24349;53.720;10.014;2023-02-04T13:00:39;3.97;;;1.65;;
38581;SDS011;24349;53.720;10.014;2023-02-04T13:03:06;3.92;;;1.60;;
38581;SDS011;24349;53.720;10.014;2023-02-04T13:05:32;4.03;;;1.75;;
38581;SDS011;24349;53.720;10.014;2023-02-04T13:07:59;4.30;;;1.60;;
38581;SDS011;24349;53.720;10.014;2023-02-04T13:10:25;4.75;;;1.60;;
38581;SDS011;24349;53.720;10.014;2023-02-04T13:12:51;3.78;;;1.60;;
38581;SDS011;24349;53.720;10.014;2023-02-04T13:15:16;4.15;;;1.58;;
38581;SDS011;24349;53.720;10.014;2023-02-04T13:17:42;3.20;;;1.50;;
38581;SDS011;24349;53.720;10.014;2023-02-04T13:20:08;2.47;;;1.30;;
38581;SDS011;24349;53.720;10.014;2023-02-04T13:22:36;3.78;;;1.45;;
38581;SDS011;24349;53.720;10.014;2023-02-04T13:25:02;3.78;;;1.63;;
38581;SDS011;24349;53.720;10.014;2023-02-04T13:27:28;4.03;;;1.45;;
38581;SDS011;24349;53.720;10.014;2023-02-04T13:29:55;4.07;;;1.75;;
38581;SDS011;24349;53.720;10.014;2023-02-04T13:34:57;3.95;;;1.48;;
38581;SDS011;24349;53.720;10.014;2023-02-04T13:37:23;4.82;;;1.50;;
38581;SDS011;24349;53.720;10.014;2023-02-04T13:39:48;3.83;;;1.40;;
38581;SDS011;24349;53.720;10.014;2023-02-04T13:42:20;3.90;;;1.42;;
38581;SDS011;24349;53.720;10.014;2023-02-04T13:44:46;4.15;;;1.33;;
38581;SDS011;24349;53.720;10.014;2023-02-04T13:47:15;3.58;;;1.25;;
38581;SDS011;24349;53.720;10.014;2023-02-04T13:50:07;9.35;;;1.67;;
38581;SDS011;24349;53.720;10.014;2023-02-04T13:52:48;3.60;;;1.30;;
38581;SDS011;24349;53.720;10.014;2023-02-04T13:55:17;4.45;;;1.60;;
38581;SDS011;24349;53.720;10.014;2023-02-04T13:57:45;3.65;;;1.45;;
38581;SDS011;24349;53.720;10.014;2023-02-04T14:00:10;4.13;;;1.45;;
38581;SDS011;24349;53.720;10.014;2023-02-04T14:08:11;3.70;;;1.33;;
38581;SDS011;24349;53.720;10.014;2023-02-04T14:10:37;4.10;;;1.50;;
38581;SDS011;24349;53.720;10.014;2023-02-04T14:13:04;3.50;;;1.40;;
38581;SDS011;24349;53.720;10.014;2023-02-04T14:15:30;4.10;;;1.40;;
38581;SDS011;24349;53.720;10.014;2023-02-04T14:17:58;4.82;;;1.42;;
38581;SDS011;24349;53.720;10.014;2023-02-04T14:20:24;3.58;;;1.55;;
38581;SDS011;24349;53.720;10.014;2023-02-04T14:22:50;4.03;;;1.60;;
38581;SDS011;24349;53.720;10.014;2023-02-04T14:25:15;5.55;;;1.90;;
38581;SDS011;24349;53.720;10.014;2023-02-04T14:27:41;4.00;;;1.60;;
38581;SDS011;24349;53.720;10.014;2023-02-04T14:30:10;4.70;;;2.65;;
38581;SDS011;24349;53.720;10.014;2023-02-04T14:32:45;3.95;;;1.40;;
38581;SDS011;24349;53.720;10.014;2023-02-04T14:35:11;4.03;;;1.63;;
38581;SDS011;24349;53.720;10.014;2023-02-04T14:37:37;3.00;;;1.25;;
38581;SDS011;24349;53.720;10.014;2023-02-04T14:40:03;4.85;;;1.70;;
38581;SDS011;24349;53.720;10.014;2023-02-04T14:42:29;5.00;;;2.03;;
38581;SDS011;24349;53.720;10.014;2023-02-04T14:44:55;4.95;;;1.70;;
38581;SDS011;24349;53.720;10.014;2023-02-04T14:47:22;3.97;;;1.70;;
38581;SDS011;24349;53.720;10.014;2023-02-04T14:52:40;3.53;;;1.50;;
38581;SDS011;24349;53.720;10.014;2023-02-04T15:17:35;4.00;;;1.50;;
38581;SDS011;24349;53.720;10.014;2023-02-04T15:24:09;3.53;;;1.63;;
38581;SDS011;24349;53.720;10.014;2023-02-04T15:26:39;4.15;;;1.67;;
38581;SDS011;24349;53.720;10.014;2023-02-04T15:35:12;4.95;;;1.60;;
38581;SDS011;24349;53.720;10.014;2023-02-04T15:37:38;3.95;;;1.70;;
38581;SDS011;24349;53.720;10.014;2023-02-04T15:40:05;4.90;;;2.03;;
38581;SDS011;24349;53.720;10.014;2023-02-04T15:42:33;4.53;;;2.05;;